Time;durP1;ratioP1;P1;durP2;ratioP2;P2;SDS_P1;SDS_P2;PMS_P1;PMS_P2;Temp;Humidity;BMP_temperature;BMP_pressure;BME280_temperature;BME280_humidity;BME280_pressure;Samples;Min_cycle;Max_cycle;Signal;HPM_P1;HPM_P2
2023/05/31 00:01:12;;;;;;;;;;;;;;;9.89;65.01;99563.45;136097;1275;22494;-74
2023/05/31 00:04:14;;;;;;;22.80;7.10;;;;;;;9.81;65.75;99570.97;136080;1275;22513;-66
2023/05/31 00:07:17;;;;;;;23.90;7.50;;;;;;;9.70;66.38;99568.70;136129;1275;24229;-73
2023/05/31 00:10:20;;;;;;;23.50;7.50;;;;;;;9.65;66.91;99571.02;136062;1276;25477;-67
2023/05/31 00:13:22;;;;;;;;;;;;;;;9.56;67.09;99566.20;136096;1275;22501;-71
2023/05/31 00:16:25;;;;;;;26.20;8.40;;;;;;;9.52;67.41;99569.86;136068;1275;22520;-66
2023/05/31 00:19:27;;;;;;;21.50;7.00;;;;;;;9.47;67.27;99569.40;136089;1275;22516;-68
2023/05/31 00:22:29;;;;;;;20.70;6.90;;;;;;;9.44;67.09;99570.41;136085;1276;22524;-64
2023/05/31 00:25:32;;;;;;;22.90;6.90;;;;;;;9.36;67.98;99571.79;136119;1275;24366;-61
2023/05/31 00:28:34;;;;;;;22.60;6.60;;;;;;;9.33;67.75;99570.52;136064;1275;22528;-72
2023/05/31 00:31:37;;;;;;;;;;;;;;;9.35;68.31;99569.71;136072;1275;22505;-69
2023/05/31 00:34:39;;;;;;;22.30;6.40;;;;;;;9.17;68.98;99572.63;136084;1275;22661;-71
2023/05/31 00:37:41;;;;;;;21.40;7.00;;;;;;;9.06;69.07;99575.20;136104;1275;23806;-70
2023/05/31 00:40:44;;;;;;;20.40;6.50;;;;;;;8.96;69.61;99575.77;136110;1275;22655;-74
2023/05/31 00:43:46;;;;;;;19.20;5.60;;;;;;;8.99;69.13;99573.36;136077;1275;22547;-70
2023/05/31 00:46:49;;;;;;;21.70;7.10;;;;;;;8.95;68.53;99574.77;136034;1276;22526;-72
2023/05/31 00:49:51;;;;;;;21.50;6.50;;;;;;;8.95;68.65;99578.59;136055;1275;25429;-67
2023/05/31 00:52:54;;;;;;;22.20;7.00;;;;;;;9.00;68.80;99578.37;136101;1253;22537;-72
2023/05/31 00:55:56;;;;;;;22.40;7.20;;;;;;;9.12;69.39;99577.55;136077;1276;22509;-65
2023/05/31 00:58:58;;;;;;;23.60;6.80;;;;;;;9.12;69.27;99576.15;136062;1275;22625;-71
2023/05/31 01:02:01;;;;;;;23.80;7.20;;;;;;;9.06;69.55;99577.09;136110;1276;22520;-68
2023/05/31 01:05:03;;;;;;;22.00;7.30;;;;;;;9.06;69.59;99576.55;136087;1275;23569;-70
2023/05/31 01:08:06;;;;;;;22.40;7.50;;;;;;;9.03;69.67;99574.79;136080;1276;22532;-68
2023/05/31 01:11:08;;;;;;;24.90;7.60;;;;;;;9.05;69.56;99577.66;136089;1260;22692;-69
2023/05/31 01:14:10;;;;;;;;;;;;;;;9.20;68.66;99579.30;136098;1261;22627;-67
2023/05/31 01:17:13;;;;;;;24.70;8.10;;;;;;;9.25;68.24;99576.80;136044;1276;25619;-65
2023/05/31 01:20:15;;;;;;;21.90;7.70;;;;;;;9.19;68.29;99577.93;136077;1276;22509;-63
2023/05/31 01:23:18;;;;;;;27.20;9.50;;;;;;;9.08;68.68;99578.39;136074;1276;22516;-67
2023/05/31 01:26:20;;;;;;;22.20;7.80;;;;;;;8.93;68.97;99572.93;136013;1276;22597;-68
2023/05/31 01:29:23;;;;;;;24.10;7.60;;;;;;;8.86;69.31;99571.64;136024;1254;24212;-66
2023/05/31 01:32:26;;;;;;;22.40;7.10;;;;;;;8.84;69.46;99573.13;136072;1276;22538;-72
2023/05/31 01:35:28;;;;;;;;;;;;;;;8.85;69.78;99576.24;136095;1275;22502;-66
2023/05/31 01:38:31;;;;;;;21.90;7.60;;;;;;;8.81;70.99;99579.35;136056;1276;24265;-68
2023/05/31 01:41:33;;;;;;;;;;;;;;;8.71;70.36;99579.77;136061;1276;25217;-70
2023/05/31 01:44:35;;;;;;;20.50;6.60;;;;;;;8.62;70.34;99583.11;136052;1276;24384;-73
2023/05/31 01:47:40;;;;;;;22.70;8.10;;;;;;;8.55;70.85;99590.73;136082;1276;22530;-70
2023/05/31 01:50:42;;;;;;;22.40;7.20;;;;;;;8.59;70.86;99588.98;136090;1276;22527;-70
2023/05/31 01:53:45;;;;;;;;;;;;;;;8.54;70.72;99589.52;136083;1276;22498;-73
2023/05/31 01:56:47;;;;;;;23.60;6.70;;;;;;;8.47;71.44;99592.41;136027;1276;22530;-69
2023/05/31 01:59:50;;;;;;;;;;;;;;;8.53;71.13;99598.09;136053;1276;24248;-72
2023/05/31 02:02:52;;;;;;;24.80;6.20;;;;;;;8.54;71.42;99598.08;136103;1276;22540;-70
2023/05/31 02:05:55;;;;;;;;;;;;;;;8.57;71.83;99602.84;136109;1260;22505;-76
2023/05/31 02:08:57;;;;;;;22.20;6.90;;;;;;;8.44;71.91;99609.07;136113;1276;22524;-73
2023/05/31 02:11:59;;;;;;;21.10;6.40;;;;;;;8.29;72.04;99611.74;136032;1276;22527;-73
2023/05/31 02:15:02;;;;;;;21.10;6.60;;;;;;;8.29;71.42;99610.52;136068;1276;22533;-72
2023/05/31 02:18:05;;;;;;;22.20;6.80;;;;;;;8.31;71.51;99607.83;136071;1276;22533;-74
2023/05/31 02:21:07;;;;;;;24.80;7.50;;;;;;;8.32;71.75;99606.23;136008;1276;24188;-72
2023/05/31 02:24:10;;;;;;;;;;;;;;;8.27;72.46;99608.52;136097;1260;24222;-74
2023/05/31 02:27:12;;;;;;;21.20;6.30;;;;;;;8.29;72.63;99608.45;136048;1276;24413;-73
2023/05/31 02:30:15;;;;;;;22.10;6.00;;;;;;;8.30;73.03;99604.17;136080;1276;22546;-67
2023/05/31 02:33:17;;;;;;;22.30;6.40;;;;;;;8.44;72.56;99595.16;136023;1275;22509;-74
2023/05/31 02:36:20;;;;;;;22.90;6.40;;;;;;;8.49;72.37;99595.66;136076;1276;22519;-70
2023/05/31 02:39:22;;;;;;;22.90;6.30;;;;;;;8.50;73.21;99600.84;136086;1276;22516;-64
2023/05/31 02:42:25;;;;;;;23.30;7.00;;;;;;;8.54;73.05;99604.34;136037;1267;22526;-68
2023/05/31 02:45:27;;;;;;;20.10;6.50;;;;;;;8.52;72.58;99605.48;136017;1276;22641;-72
2023/05/31 02:48:30;;;;;;;24.70;7.30;;;;;;;8.47;72.59;99601.98;136080;1276;22552;-75
2023/05/31 02:51:32;;;;;;;21.50;5.80;;;;;;;8.47;72.78;99600.08;136062;1275;22507;-63
2023/05/31 02:54:35;;;;;;;19.40;5.70;;;;;;;8.60;72.78;99610.40;136048;1276;24420;-63
2023/05/31 02:57:37;;;;;;;20.50;5.50;;;;;;;8.70;72.47;99612.61;136041;1276;22520;-72
2023/05/31 03:00:39;;;;;;;20.50;6.50;;;;;;;8.57;73.48;99614.85;136032;1276;22520;-74
2023/05/31 03:03:42;;;;;;;21.40;6.50;;;;;;;8.72;72.95;99613.40;136052;1276;23877;-59
2023/05/31 03:06:44;;;;;;;21.60;6.80;;;;;;;8.86;72.47;99613.69;136018;1276;22564;-72
2023/05/31 03:09:49;;;;;;;24.10;6.60;;;;;;;9.01;72.23;99610.27;136020;1276;22560;-72
2023/05/31 03:12:52;;;;;;;25.90;6.80;;;;;;;8.96;73.25;99608.55;136028;1276;22519;-73
2023/05/31 03:15:57;;;;;;;25.70;6.20;;;;;;;9.11;73.47;99611.94;136012;1275;22507;-70
2023/05/31 03:19:00;;;;;;;20.70;6.40;;;;;;;9.34;72.47;99612.39;136012;1275;26639;-63
2023/05/31 03:22:02;;;;;;;23.40;6.20;;;;;;;9.53;72.49;99611.36;136026;1276;22527;-59
2023/05/31 03:25:05;;;;;;;20.40;5.80;;;;;;;9.77;72.76;99607.70;136039;1259;22523;-64
2023/05/31 03:28:08;;;;;;;21.50;6.20;;;;;;;9.85;72.90;99608.34;136065;1275;22527;-62
2023/05/31 03:31:10;;;;;;;;;;;;;;;10.18;72.46;99605.44;136122;1275;22501;-67
2023/05/31 03:34:13;;;;;;;20.80;5.50;;;;;;;10.39;71.81;99605.20;136052;1275;22530;-70
2023/05/31 03:37:15;;;;;;;;;;;;;;;10.55;71.11;99607.23;136001;1275;22521;-70
2023/05/31 03:40:18;;;;;;;21.10;6.50;;;;;;;10.54;70.94;99613.39;135993;1275;22527;-64
2023/05/31 03:43:21;;;;;;;19.20;5.80;;;;;;;10.55;70.61;99610.20;136051;1275;22601;-63
2023/05/31 03:46:23;;;;;;;;;;;;;;;10.59;71.19;99610.36;136012;1275;24228;-70
2023/05/31 03:49:26;;;;;;;19.40;5.70;;;;;;;10.70;71.13;99611.77;136099;1275;22530;-66
2023/05/31 03:52:28;;;;;;;;;;;;;;;10.95;71.09;99614.20;136080;1275;22534;-64
2023/05/31 03:55:32;;;;;;;21.00;6.10;;;;;;;11.22;70.10;99616.00;136048;1275;22528;-74
2023/05/31 03:58:35;;;;;;;21.10;6.30;;;;;;;11.38;70.19;99617.84;136032;1275;25227;-70
2023/05/31 04:01:37;;;;;;;22.40;6.70;;;;;;;11.57;70.33;99622.96;136070;1275;22554;-69
2023/05/31 04:04:40;;;;;;;;;;;;;;;11.79;69.90;99623.74;136063;1270;22498;-64
2023/05/31 04:07:42;;;;;;;23.80;7.10;;;;;;;11.98;70.21;99625.02;135973;1275;22546;-72
2023/05/31 04:10:45;;;;;;;22.90;6.80;;;;;;;12.14;70.03;99624.35;136075;1275;22528;-75
2023/05/31 04:13:48;;;;;;;21.50;6.80;;;;;;;12.32;69.51;99625.31;136059;1275;22555;-70
2023/05/31 04:16:50;;;;;;;27.60;7.30;;;;;;;12.43;70.22;99618.70;136062;1276;22521;-70
2023/05/31 04:19:53;;;;;;;26.10;7.70;;;;;;;12.60;70.40;99618.31;136058;1272;22546;-70
2023/05/31 04:22:55;;;;;;;28.10;7.30;;;;;;;12.87;69.80;99618.14;136079;1276;22535;-72
2023/05/31 04:26:00;;;;;;;;;;;;;;;13.27;69.31;99618.83;136094;1276;22517;-68
2023/05/31 04:29:03;;;;;;;24.00;7.00;;;;;;;13.68;68.73;99617.94;136045;1276;23820;-76
2023/05/31 04:32:07;;;;;;;26.60;8.10;;;;;;;14.07;68.96;99615.90;136064;1276;22522;-75
2023/05/31 04:35:10;;;;;;;24.50;7.70;;;;;;;14.45;67.72;99615.77;136048;1272;22534;-71
2023/05/31 04:38:16;;;;;;;27.40;8.00;;;;;;;14.68;67.17;99614.17;136064;1275;22519;-70
2023/05/31 04:41:19;;;;;;;25.70;7.90;;;;;;;15.01;66.79;99620.63;136064;1275;22523;-66
2023/05/31 04:44:21;;;;;;;28.70;7.20;;;;;;;15.27;65.69;99618.38;136120;1273;22533;-72
2023/05/31 04:47:24;;;;;;;;;;;;;;;15.52;65.29;99623.02;135984;1275;22497;-69
2023/05/31 04:50:26;;;;;;;31.50;8.40;;;;;;;15.74;65.73;99632.74;135795;1275;24346;-72
2023/05/31 04:53:30;;;;;;;;;;;;;;;15.79;66.23;99639.65;136043;1276;22521;-72
2023/05/31 04:56:32;;;;;;;30.40;8.60;;;;;;;15.76;66.34;99637.59;136077;1275;22554;-71
2023/05/31 04:59:35;;;;;;;;;;;;;;;15.91;65.72;99643.59;136063;1276;22510;-70
2023/05/31 05:02:37;;;;;;;27.80;8.40;;;;;;;15.93;65.46;99646.48;136075;1276;22534;-70
2023/05/31 05:05:39;;;;;;;;;;;;;;;16.05;64.25;99647.39;136126;1276;22549;-66
2023/05/31 05:08:42;;;;;;;25.60;7.20;;;;;;;16.18;62.91;99646.17;136077;1275;22532;-72
2023/05/31 05:11:44;;;;;;;;;;;;;;;16.19;62.76;99644.26;136070;1276;22508;-72
2023/05/31 05:14:47;;;;;;;36.00;7.20;;;;;;;16.29;61.57;99643.39;136033;1275;22517;-74
2023/05/31 05:17:49;;;;;;;;;;;;;;;16.41;61.03;99644.81;136119;1275;22595;-75
2023/05/31 05:20:52;;;;;;;22.90;7.20;;;;;;;16.62;61.29;99639.44;136048;1260;22527;-71
2023/05/31 05:23:54;;;;;;;;;;;;;;;16.68;60.21;99639.03;136059;1259;22545;-71
2023/05/31 05:26:57;;;;;;;21.20;6.00;;;;;;;16.91;59.95;99637.52;136074;1276;22527;-73
2023/05/31 05:30:00;;;;;;;23.80;6.10;;;;;;;17.14;59.91;99637.40;136100;1276;25409;-70
2023/05/31 05:33:03;;;;;;;19.20;5.40;;;;;;;17.50;59.30;99630.78;136074;1276;22517;-69
2023/05/31 05:36:05;;;;;;;;;;;;;;;17.67;58.19;99633.38;136077;1275;22524;-70
2023/05/31 05:39:08;;;;;;;22.10;5.80;;;;;;;18.03;57.76;99628.67;136076;1276;23252;-75
2023/05/31 05:42:11;;;;;;;18.40;4.80;;;;;;;18.31;56.12;99630.10;136114;1275;22520;-67
2023/05/31 05:45:14;;;;;;;22.10;5.90;;;;;;;18.55;57.11;99628.95;136079;1263;22643;-68
2023/05/31 05:48:17;;;;;;;20.10;5.20;;;;;;;18.92;55.12;99627.33;136055;1275;22527;-64
2023/05/31 05:51:19;;;;;;;19.50;4.50;;;;;;;19.03;54.62;99624.15;136105;1276;22539;-70
2023/05/31 05:54:22;;;;;;;19.00;4.60;;;;;;;19.11;54.18;99621.38;136094;1276;22527;-73
2023/05/31 05:57:25;;;;;;;19.40;3.90;;;;;;;19.36;53.98;99621.14;136052;1272;25405;-68
2023/05/31 06:00:28;;;;;;;17.80;4.40;;;;;;;19.63;53.37;99624.08;136127;1275;22520;-73
2023/05/31 06:03:32;;;;;;;19.80;4.40;;;;;;;19.96;52.98;99627.39;136076;1276;22519;-69
2023/05/31 06:06:35;;;;;;;19.60;4.40;;;;;;;20.18;50.73;99622.30;136043;1276;25337;-70
2023/05/31 06:09:38;;;;;;;16.90;4.10;;;;;;;20.47;51.53;99620.98;136063;1276;22527;-70
2023/05/31 06:12:40;;;;;;;19.80;4.00;;;;;;;20.70;49.89;99616.48;136076;1275;22554;-72
2023/05/31 06:15:42;;;;;;;17.70;4.40;;;;;;;20.84;49.22;99621.55;136086;1275;22529;-68
2023/05/31 06:18:45;;;;;;;16.80;4.10;;;;;;;21.00;48.75;99621.86;136073;1276;22570;-72
2023/05/31 06:21:49;;;;;;;18.40;4.10;;;;;;;21.25;48.05;99622.95;136087;1273;22538;-73
2023/05/31 06:24:53;;;;;;;14.20;4.10;;;;;;;21.37;47.75;99619.95;136059;1276;24061;-69
2023/05/31 06:27:57;;;;;;;17.00;4.10;;;;;;;21.51;47.89;99615.64;136060;1276;22527;-71
2023/05/31 06:31:00;;;;;;;13.10;3.70;;;;;;;21.79;47.01;99617.22;136095;1276;22538;-73
2023/05/31 06:34:03;;;;;;;16.20;4.00;;;;;;;22.06;45.93;99608.78;136061;1276;25321;-69
2023/05/31 06:37:07;;;;;;;17.60;4.30;;;;;;;22.23;45.13;99609.77;136081;1276;22531;-72
2023/05/31 06:40:10;;;;;;;15.80;4.00;;;;;;;22.37;44.87;99607.83;136099;1276;22514;-74
2023/05/31 06:43:13;;;;;;;16.30;4.10;;;;;;;22.44;44.77;99606.20;136079;1276;22540;-73
2023/05/31 06:46:15;;;;;;;16.60;3.70;;;;;;;22.78;43.95;99603.06;136050;1276;22536;-72
2023/05/31 06:49:18;;;;;;;17.40;4.20;;;;;;;23.02;44.16;99602.61;136124;1276;22563;-75
2023/05/31 06:52:20;;;;;;;16.00;3.90;;;;;;;23.27;42.86;99602.09;136045;1276;22568;-70
2023/05/31 06:55:22;;;;;;;12.40;3.20;;;;;;;23.57;42.19;99602.88;136112;1275;22530;-71
2023/05/31 06:58:25;;;;;;;13.40;3.30;;;;;;;23.56;41.54;99597.86;136048;1275;22527;-70
2023/05/31 07:01:28;;;;;;;14.80;3.30;;;;;;;23.41;40.00;99599.73;136073;1275;22514;-67
2023/05/31 07:04:31;;;;;;;13.20;2.90;;;;;;;23.48;40.30;99595.84;136126;1275;22543;-67
2023/05/31 07:07:33;;;;;;;9.90;2.80;;;;;;;23.83;40.18;99601.75;136108;1275;22512;-71
2023/05/31 07:10:36;;;;;;;16.90;3.00;;;;;;;24.01;39.58;99601.67;136136;1276;22517;-71
2023/05/31 07:13:38;;;;;;;12.40;3.00;;;;;;;24.24;39.42;99596.91;136112;1276;22531;-69
2023/05/31 07:16:41;;;;;;;13.10;3.20;;;;;;;24.57;39.49;99594.97;136076;1275;22588;-72
2023/05/31 07:19:43;;;;;;;13.80;3.20;;;;;;;24.65;38.01;99598.78;136097;1275;22561;-73
2023/05/31 07:22:45;;;;;;;8.40;2.70;;;;;;;24.81;38.33;99597.29;136108;1275;22523;-71
2023/05/31 07:25:48;;;;;;;15.60;3.30;;;;;;;25.09;38.33;99598.36;136112;1276;22530;-75
2023/05/31 07:29:08;;;;;;;10.30;3.00;;;;;;;25.39;38.28;99596.83;136095;1275;22530;-71
2023/05/31 07:32:10;;;;;;;12.50;3.30;;;;;;;25.83;37.77;99596.28;136095;1276;22514;-77
2023/05/31 07:35:13;;;;;;;13.80;3.00;;;;;;;26.20;37.74;99591.90;136125;1275;22530;-76
2023/05/31 07:38:15;;;;;;;13.70;3.00;;;;;;;26.31;35.67;99588.39;136131;1275;22517;-73
2023/05/31 07:41:18;;;;;;;13.60;3.60;;;;;;;26.07;36.08;99586.03;136078;1275;22526;-72
2023/05/31 07:44:22;;;;;;;14.90;3.20;;;;;;;26.31;36.08;99584.76;136103;1275;22527;-75
2023/05/31 07:47:24;;;;;;;10.00;3.00;;;;;;;26.60;35.73;99584.98;136099;1275;22524;-74
2023/05/31 07:50:27;;;;;;;11.10;2.90;;;;;;;27.05;34.92;99585.71;136131;1274;22558;-76
2023/05/31 07:53:29;;;;;;;9.90;2.50;;;;;;;26.85;33.45;99579.60;136120;1275;24221;-74
2023/05/31 07:56:32;;;;;;;11.60;2.60;;;;;;;26.47;32.76;99583.78;136090;1275;24252;-70
2023/05/31 07:59:34;;;;;;;10.00;2.90;;;;;;;26.09;33.06;99580.02;136045;1275;23923;-73
2023/05/31 08:02:37;;;;;;;9.00;2.60;;;;;;;25.75;33.97;99577.84;136080;1275;22531;-76
2023/05/31 08:05:39;;;;;;;10.40;2.50;;;;;;;25.68;32.78;99574.34;136056;1275;22516;-68
2023/05/31 08:08:42;;;;;;;7.30;2.00;;;;;;;25.73;31.55;99575.20;136058;1275;22527;-71
2023/05/31 08:11:44;;;;;;;10.70;2.10;;;;;;;25.60;31.28;99577.86;136083;1276;22521;-70
2023/05/31 08:14:47;;;;;;;9.50;2.30;;;;;;;25.67;32.29;99574.41;135958;1267;22527;-73
2023/05/31 08:17:50;;;;;;;11.80;2.40;;;;;;;25.80;32.03;99568.30;135986;1275;25411;-75
2023/05/31 08:20:53;;;;;;;7.90;2.20;;;;;;;25.76;31.58;99570.96;135944;1275;22542;-76
2023/05/31 08:23:55;;;;;;;11.40;2.40;;;;;;;25.73;31.13;99572.50;135997;1275;22594;-71
2023/05/31 08:26:58;;;;;;;9.90;2.40;;;;;;;25.76;31.65;99567.41;136040;1275;22569;-74
2023/05/31 08:30:00;;;;;;;10.40;2.50;;;;;;;26.09;31.63;99565.91;136079;1260;22542;-75
2023/05/31 08:33:03;;;;;;;9.30;2.40;;;;;;;26.00;30.97;99567.27;136072;1275;22574;-75
2023/05/31 08:36:05;;;;;;;10.70;2.50;;;;;;;26.13;31.94;99564.75;136103;1275;22532;-75
2023/05/31 08:39:08;;;;;;;9.90;2.10;;;;;;;26.68;31.58;99562.69;136073;1273;22540;-75
2023/05/31 08:42:11;;;;;;;11.00;2.20;;;;;;;27.16;31.42;99561.61;136050;1275;22528;-76
2023/05/31 08:45:13;;;;;;;8.90;2.30;;;;;;;27.66;31.27;99556.19;136052;1275;22560;-74
2023/05/31 08:48:16;;;;;;;11.90;2.50;;;;;;;28.03;30.26;99558.76;136045;1275;22548;-74
2023/05/31 08:51:18;;;;;;;10.30;2.30;;;;;;;27.85;29.36;99562.42;136018;1275;22534;-74
2023/05/31 08:54:21;;;;;;;6.50;1.90;;;;;;;27.18;29.02;99563.98;136085;1257;22632;-70
2023/05/31 08:57:23;;;;;;;10.40;2.50;;;;;;;27.10;29.91;99557.27;136070;1275;22668;-72
2023/05/31 09:00:26;;;;;;;8.10;2.20;;;;;;;27.57;30.18;99551.34;136104;1275;22629;-68
2023/05/31 09:03:28;;;;;;;11.30;2.00;;;;;;;27.77;29.09;99551.03;136052;1275;22566;-65
2023/05/31 09:06:32;;;;;;;8.70;2.20;;;;;;;27.62;29.03;99549.46;136031;1275;22536;-69
2023/05/31 09:09:34;;;;;;;9.40;2.40;;;;;;;27.76;29.68;99553.91;136083;1275;22591;-72
2023/05/31 09:12:37;;;;;;;9.80;2.40;;;;;;;27.94;28.48;99557.46;136091;1275;22520;-69
2023/05/31 09:15:39;;;;;;;10.50;2.30;;;;;;;27.54;29.23;99551.60;136086;1275;22701;-73
2023/05/31 09:18:41;;;;;;;6.10;2.00;;;;;;;27.45;28.60;99550.65;136054;1275;22991;-74
2023/05/31 09:21:47;;;;;;;6.20;2.10;;;;;;;27.57;28.57;99544.09;136064;1275;22563;-78
2023/05/31 09:24:49;;;;;;;7.30;2.30;;;;;;;27.87;28.98;99542.29;136093;1275;22658;-74
2023/05/31 09:27:52;;;;;;;8.30;2.10;;;;;;;28.37;28.36;99540.63;136051;1275;22524;-75
2023/05/31 09:30:54;;;;;;;8.10;1.80;;;;;;;28.76;28.65;99538.14;136121;1275;23934;-75
2023/05/31 09:37:42;;;;;;;7.80;1.90;;;;;;;28.64;27.58;99535.25;136045;1275;24234;-73
2023/05/31 09:40:44;;;;;;;9.30;2.10;;;;;;;28.12;27.22;99533.45;136062;1275;25733;-72
2023/05/31 09:43:47;;;;;;;9.00;2.50;;;;;;;27.62;27.52;99539.77;136095;1275;22546;-71
2023/05/31 09:46:50;;;;;;;7.60;2.00;;;;;;;27.53;27.65;99536.46;136095;1275;22550;-78
2023/05/31 09:49:52;;;;;;;12.20;2.30;;;;;;;27.12;27.74;99529.59;135828;1275;22568;-72
2023/05/31 09:52:54;;;;;;;9.90;2.20;;;;;;;27.20;28.65;99531.86;135769;1275;22661;-75
2023/05/31 09:55:57;;;;;;;6.70;1.90;;;;;;;27.35;28.31;99524.44;135771;1275;22554;-73
2023/05/31 09:59:00;;;;;;;7.40;1.80;;;;;;;27.56;28.51;99522.45;135571;1254;22550;-71
2023/05/31 10:02:02;;;;;;;9.30;2.40;;;;;;;27.83;27.93;99527.73;135596;1275;22560;-76
2023/05/31 10:05:05;;;;;;;9.00;2.20;;;;;;;28.10;28.42;99522.55;135709;1275;22552;-65
2023/05/31 10:08:08;;;;;;;9.40;2.30;;;;;;;28.30;28.26;99516.66;135620;1276;22547;-67
2023/05/31 10:11:12;;;;;;;12.30;2.20;;;;;;;27.91;28.77;99510.20;135721;1258;22533;-73
2023/05/31 10:14:15;;;;;;;8.50;2.30;;;;;;;28.10;28.56;99510.85;135841;1276;23042;-78
2023/05/31 10:17:17;;;;;;;11.60;2.30;;;;;;;28.17;28.77;99507.02;135864;1275;22519;-78
2023/05/31 10:20:20;;;;;;;9.40;2.40;;;;;;;28.43;28.70;99500.05;136000;1276;22576;-81
2023/05/31 10:23:22;;;;;;;7.50;2.30;;;;;;;28.72;28.08;99497.08;136046;1276;22546;-77
2023/05/31 10:26:25;;;;;;;10.10;2.60;;;;;;;28.70;27.69;99497.94;136078;1253;22510;-76
2023/05/31 10:29:28;;;;;;;10.90;2.70;;;;;;;28.24;28.29;99498.38;136060;1276;24375;-77
2023/05/31 10:32:30;;;;;;;7.80;2.60;;;;;;;27.95;28.22;99495.04;136036;1276;22560;-74
2023/05/31 10:35:33;;;;;;;8.20;2.50;;;;;;;28.03;28.89;99491.24;136059;1257;22531;-71
2023/05/31 10:38:36;;;;;;;8.00;2.40;;;;;;;27.95;27.83;99486.33;136021;1276;22565;-76
2023/05/31 10:41:38;;;;;;;8.70;2.20;;;;;;;27.64;27.41;99479.66;136097;1276;22534;-71
2023/05/31 10:44:40;;;;;;;6.80;2.10;;;;;;;27.95;28.26;99479.73;136045;1276;25484;-68
2023/05/31 10:47:44;;;;;;;9.20;2.50;;;;;;;28.46;29.37;99475.85;136044;1276;24492;-73
2023/05/31 10:50:47;;;;;;;9.50;2.50;;;;;;;28.98;29.31;99474.36;136053;1276;22530;-74
2023/05/31 10:53:57;;;;;;;9.70;2.60;;;;;;;29.59;27.97;99475.33;131759;1277;5372318;-75
2023/05/31 10:57:00;;;;;;;9.20;2.60;;;;;;;29.40;26.66;99477.20;136011;1276;22538;-75
2023/05/31 11:00:06;;;;;;;8.90;2.60;;;;;;;28.86;27.28;99474.09;136035;1276;22678;-74
2023/05/31 11:03:09;;;;;;;10.80;2.60;;;;;;;28.20;27.94;99479.29;136060;1275;22524;-78
2023/05/31 11:06:12;;;;;;;10.40;2.80;;;;;;;27.97;27.24;99477.39;136095;1275;22618;-75
2023/05/31 11:09:15;;;;;;;11.60;2.70;;;;;;;28.26;27.79;99470.10;136061;1276;22521;-72
2023/05/31 11:12:18;;;;;;;10.60;2.60;;;;;;;28.51;27.51;99458.84;136086;1276;22546;-78
2023/05/31 11:15:20;;;;;;;8.20;2.50;;;;;;;29.05;27.82;99458.29;136057;1275;22527;-78
2023/05/31 11:18:23;;;;;;;11.10;2.10;;;;;;;29.30;27.35;99459.83;136046;1276;22519;-75
2023/05/31 11:21:25;;;;;;;8.20;2.60;;;;;;;28.83;26.81;99458.13;136072;1276;22636;-73
2023/05/31 11:24:28;;;;;;;5.90;2.10;;;;;;;28.05;28.29;99456.79;136051;1276;22548;-77
2023/05/31 11:27:30;;;;;;;7.70;2.20;;;;;;;27.78;28.40;99454.11;136035;1255;22534;-74
2023/05/31 11:30:32;;;;;;;10.50;2.30;;;;;;;27.91;27.43;99452.18;136009;1275;22600;-74
2023/05/31 11:33:35;;;;;;;11.60;2.80;;;;;;;28.40;28.18;99448.58;136080;1275;22535;-74
2023/05/31 11:36:38;;;;;;;9.20;2.30;;;;;;;28.75;27.13;99444.72;136010;1275;22469;-78
2023/05/31 11:39:40;;;;;;;8.10;2.60;;;;;;;28.81;26.94;99443.77;136034;1276;22530;-77
2023/05/31 11:42:43;;;;;;;9.80;2.60;;;;;;;28.15;27.14;99451.16;136053;1275;25469;-81
2023/05/31 11:45:46;;;;;;;12.40;2.50;;;;;;;27.64;28.13;99446.59;136123;1275;25994;-80
2023/05/31 11:48:48;;;;;;;12.20;2.60;;;;;;;27.56;28.59;99441.58;136084;1275;22547;-79
2023/05/31 11:51:51;;;;;;;10.80;2.70;;;;;;;27.66;28.37;99442.21;136121;1275;22530;-85
2023/05/31 11:54:54;;;;;;;10.40;2.40;;;;;;;27.90;27.94;99435.41;136148;1275;22636;-79
2023/05/31 11:57:57;;;;;;;8.30;2.40;;;;;;;28.65;28.76;99425.40;136087;1275;25570;-80
2023/05/31 12:00:59;;;;;;;9.50;2.30;;;;;;;29.34;27.52;99426.63;136085;1258;24188;-75
2023/05/31 12:04:02;;;;;;;8.00;2.50;;;;;;;29.21;26.77;99423.11;136110;1275;22534;-77
2023/05/31 12:07:04;;;;;;;11.50;2.30;;;;;;;29.28;26.77;99431.11;136085;1275;22650;-77
2023/05/31 12:10:07;;;;;;;10.80;2.60;;;;;;;29.12;26.63;99429.66;136075;1273;25420;-79
2023/05/31 12:13:10;;;;;;;8.00;2.60;;;;;;;29.34;27.28;99422.67;136090;1275;22532;-74
2023/05/31 12:16:12;;;;;;;8.30;2.40;;;;;;;29.46;26.44;99410.73;136075;1258;22632;-72
2023/05/31 12:19:15;;;;;;;11.50;2.60;;;;;;;29.80;26.02;99410.25;136046;1275;22542;-71
2023/05/31 12:22:17;;;;;;;12.50;2.80;;;;;;;29.59;26.80;99411.77;136116;1275;22642;-73
2023/05/31 12:25:20;;;;;;;9.70;2.50;;;;;;;29.51;25.42;99411.16;136066;1275;24358;-69
2023/05/31 12:28:22;;;;;;;7.70;1.90;;;;;;;29.42;25.84;99417.36;136120;1275;23940;-71
2023/05/31 12:31:25;;;;;;;7.50;2.50;;;;;;;29.33;25.60;99411.52;136091;1275;25362;-74
2023/05/31 12:34:28;;;;;;;9.50;2.30;;;;;;;29.15;25.28;99416.19;136122;1275;22658;-73
2023/05/31 12:37:31;;;;;;;7.70;2.10;;;;;;;28.66;25.98;99414.38;136113;1275;22581;-72
2023/05/31 12:40:33;;;;;;;7.30;2.30;;;;;;;28.48;26.35;99410.37;136105;1275;22523;-73
2023/05/31 12:43:53;;;;;;;7.20;2.30;;;;;;;28.71;26.01;99406.79;135942;1275;22520;-71
2023/05/31 12:46:55;;;;;;;6.60;2.20;;;;;;;28.90;26.15;99402.09;135897;1275;22575;-78
2023/05/31 12:49:58;;;;;;;7.50;2.30;;;;;;;29.17;24.72;99408.72;135854;1275;22641;-78
2023/05/31 12:53:01;;;;;;;8.10;2.20;;;;;;;29.41;24.85;99403.52;135825;1275;22639;-72
2023/05/31 12:56:03;;;;;;;9.50;2.40;;;;;;;29.87;24.74;99405.14;135902;1275;22527;-76
2023/05/31 12:59:06;;;;;;;10.90;2.70;;;;;;;29.85;23.38;99409.42;135872;1275;22542;-75
2023/05/31 13:02:08;;;;;;;9.90;2.50;;;;;;;29.85;24.62;99401.63;136001;1275;22532;-80
2023/05/31 13:05:11;;;;;;;12.20;2.30;;;;;;;30.40;24.53;99396.59;135775;1275;22520;-73
2023/05/31 13:08:13;;;;;;;9.60;2.40;;;;;;;31.16;24.54;99388.59;135874;1275;22559;-76
2023/05/31 13:11:16;;;;;;;9.40;2.90;;;;;;;31.60;23.17;99394.55;135884;1275;25710;-79
2023/05/31 13:14:18;;;;;;;7.30;2.30;;;;;;;31.02;22.64;99392.20;135935;1275;22557;-80
2023/05/31 13:17:20;;;;;;;8.50;2.30;;;;;;;30.36;22.83;99395.56;136065;1275;24334;-82
2023/05/31 13:20:23;;;;;;;9.20;2.40;;;;;;;30.05;23.69;99385.77;136120;1275;22538;-73
2023/05/31 13:23:25;;;;;;;8.00;2.20;;;;;;;30.06;23.73;99376.98;136044;1275;22530;-76
2023/05/31 13:26:28;;;;;;;13.40;2.30;;;;;;;30.32;23.79;99376.02;136119;1275;22530;-75
2023/05/31 13:29:30;;;;;;;8.40;2.40;;;;;;;30.57;23.32;99374.55;136035;1275;22549;-73
2023/05/31 13:32:33;;;;;;;8.20;2.50;;;;;;;30.04;22.62;99375.06;136061;1254;22532;-76
2023/05/31 13:35:37;;;;;;;6.80;2.00;;;;;;;29.49;23.05;99369.59;136107;1275;22523;-80
2023/05/31 13:38:39;;;;;;;10.50;2.80;;;;;;;29.87;24.70;99358.47;136043;1275;22551;-74
2023/05/31 13:41:42;;;;;;;9.80;2.70;;;;;;;30.69;24.26;99352.98;136120;1275;22551;-68
2023/05/31 13:44:44;;;;;;;8.50;2.00;;;;;;;30.71;23.13;99348.73;136051;1275;22521;-76
2023/05/31 13:47:47;;;;;;;9.00;2.40;;;;;;;30.56;23.82;99345.92;136093;1275;22509;-79
2023/05/31 13:50:49;;;;;;;7.90;2.40;;;;;;;30.13;23.82;99343.77;136089;1275;22539;-73
2023/05/31 13:53:51;;;;;;;13.30;2.60;;;;;;;29.62;24.08;99337.39;136122;1275;22519;-75
2023/05/31 13:56:58;;;;;;;9.50;2.60;;;;;;;29.31;24.09;99340.05;136116;1275;23912;-73
2023/05/31 14:00:04;;;;;;;10.00;2.50;;;;;;;29.35;25.50;99329.14;136082;1275;22523;-76
2023/05/31 14:03:06;;;;;;;7.50;2.30;;;;;;;29.69;24.75;99327.30;136069;1275;22517;-72
2023/05/31 14:06:09;;;;;;;8.00;2.10;;;;;;;30.30;24.75;99322.39;136100;1275;22535;-69
2023/05/31 14:09:11;;;;;;;11.10;2.50;;;;;;;30.84;23.61;99317.15;136110;1275;22539;-72
2023/05/31 14:12:14;;;;;;;16.50;2.50;;;;;;;31.23;24.50;99313.71;136091;1275;22524;-70
2023/05/31 14:15:17;;;;;;;7.10;2.40;;;;;;;31.33;23.08;99315.79;136118;1275;22527;-77